Rawalakot Weather



Rawalakot's Current Weather

Temprature 29.65o broken clouds

broken clouds

Rain: 0 %

Min Temprature29.65o
Max Temprature29.65o
Humidity22
Wind Speed0.91 m/h
Sun Rise04:55:36
Sun Set19:19:36
Current Time: 26-Jun-2019 15:52:36
Lat/Lon: 33.86, 73.76




Rawalakot's Geo Location



Rawalakot's Weather Forecast

Time Overall Temp Min Temp Max Temp Humidity Wind Speed Rain
26-Jun-2019 (Wed)
17:00:00 broken clouds 29.640 29.640 29.650 22 0.91 m/h 0 %
20:00:00 clear sky 22.740 22.740 22.747 36 1.02 m/h 0 %
23:00:00 clear sky 19.540 19.540 19.540 45 3.68 m/h 0 %
27-Jun-2019 (Thu)
02:00:00 clear sky 18.880 18.879 18.880 39 3.49 m/h 0 %
05:00:00 clear sky 17.965 17.965 17.965 38 3.59 m/h 0 %
08:00:00 clear sky 25.450 25.450 25.450 30 3.17 m/h 0 %
11:00:00 clear sky 32.074 32.074 32.074 19 0.87 m/h 0 %
14:00:00 scattered clouds 32.150 32.150 32.150 18 2.81 m/h 0 %
17:00:00 scattered clouds 32.180 32.180 32.180 17 3.19 m/h 0 %
20:00:00 clear sky 24.594 24.594 24.594 29 1.86 m/h 0 %
23:00:00 clear sky 21.735 21.735 21.735 38 3.1 m/h 0 %
28-Jun-2019 (Fri)
02:00:00 clear sky 20.228 20.228 20.228 43 3.58 m/h 0 %
05:00:00 clear sky 19.628 19.628 19.628 42 3.39 m/h 0 %
08:00:00 clear sky 26.949 26.949 26.949 31 2.87 m/h 0 %
11:00:00 clear sky 33.125 33.125 33.125 18 1.07 m/h 0 %
14:00:00 broken clouds 33.031 33.031 33.031 16 2.58 m/h 0 %
17:00:00 broken clouds 33.450 33.450 33.450 13 2.22 m/h 0 %
20:00:00 clear sky 25.350 25.350 25.350 24 1.95 m/h 0 %
23:00:00 clear sky 22.872 22.872 22.872 31 2.88 m/h 0 %
29-Jun-2019 (Sat)
02:00:00 clear sky 21.372 21.372 21.372 39 3.33 m/h 0 %
05:00:00 clear sky 20.759 20.759 20.759 37 3.36 m/h 0 %
08:00:00 clear sky 28.067 28.067 28.067 28 2.17 m/h 0 %
11:00:00 clear sky 34.450 34.450 34.450 16 1.05 m/h 0 %
14:00:00 few clouds 35.450 35.450 35.450 13 2.57 m/h 0 %
17:00:00 scattered clouds 34.991 34.991 34.991 12 2.61 m/h 0 %
20:00:00 clear sky 26.650 26.650 26.650 21 2.73 m/h 0 %
23:00:00 few clouds 24.050 24.050 24.050 26 2.35 m/h 0 %
30-Jun-2019 (Sun)
02:00:00 light rain 22.416 22.416 22.416 34 2.63 m/h 6 %
05:00:00 light rain 21.622 21.622 21.622 36 2.76 m/h 6 %
08:00:00 few clouds 29.802 29.802 29.802 24 2.65 m/h 0 %
11:00:00 few clouds 36.018 36.018 36.018 16 0.39 m/h 0 %
14:00:00 broken clouds 33.509 33.509 33.509 17 1.49 m/h 0 %
17:00:00 scattered clouds 33.050 33.050 33.050 19 0.98 m/h 0 %
20:00:00 clear sky 24.450 24.450 24.450 41 2.74 m/h 0 %
23:00:00 clear sky 22.850 22.850 22.850 39 3.66 m/h 0 %
01-Jul-2019 (Mon)
02:00:00 clear sky 22.050 22.050 22.050 38 3.28 m/h 0 %
05:00:00 clear sky 21.135 21.135 21.135 38 3.01 m/h 0 %
08:00:00 clear sky 28.850 28.850 28.850 28 2.61 m/h 0 %
11:00:00 clear sky 35.950 35.950 35.950 18 0.45 m/h 0 %
14:00:00 broken clouds 33.350 33.350 33.350 19 3.47 m/h 0 %

Famous Cities (60)